createdAt,value
2023-01-01T00:01:47.854Z,3.80
2023-01-01T00:03:53.972Z,3.22
2023-01-01T00:05:55.461Z,3.10
2023-01-01T00:08:04.344Z,3.75
2023-01-01T00:10:25.519Z,4.63
2023-01-01T00:12:27.123Z,4.15
2023-01-01T00:14:28.612Z,4.22
2023-01-01T00:16:30.133Z,3.10
2023-01-01T00:18:31.619Z,3.67
2023-01-01T00:20:35.487Z,3.75
2023-01-01T00:22:55.508Z,3.47
2023-01-01T00:24:57.640Z,3.60
2023-01-01T00:26:59.165Z,3.47
2023-01-01T00:29:01.314Z,3.72
2023-01-01T00:31:10.465Z,3.53
2023-01-01T00:33:11.991Z,3.88
2023-01-01T00:35:13.462Z,3.65
2023-01-01T00:37:18.332Z,3.60
2023-01-01T00:39:19.942Z,3.58
2023-01-01T00:41:22.230Z,4.00
2023-01-01T00:43:23.788Z,3.42
2023-01-01T00:45:25.323Z,3.45
2023-01-01T00:47:26.767Z,3.35
2023-01-01T00:49:28.237Z,3.22
2023-01-01T00:51:36.575Z,3.10
2023-01-01T00:53:38.604Z,2.97
2023-01-01T00:55:41.096Z,2.90
2023-01-01T00:57:42.568Z,2.63
2023-01-01T00:59:44.132Z,3.15
2023-01-01T01:01:45.658Z,2.88
2023-01-01T01:03:47.156Z,3.55
2023-01-01T01:05:48.597Z,2.50
2023-01-01T01:07:50.063Z,3.78
2023-01-01T01:09:51.537Z,2.95
2023-01-01T01:12:17.712Z,7.88
2023-01-01T01:14:15.016Z,2.55
2023-01-01T01:16:29.612Z,2.83
2023-01-01T01:18:31.153Z,2.90
2023-01-01T01:20:32.655Z,3.08
2023-01-01T01:22:34.839Z,3.08
2023-01-01T01:24:36.308Z,3.05
2023-01-01T01:26:37.821Z,3.05
2023-01-01T01:28:45.378Z,3.10
2023-01-01T01:30:50.517Z,2.90
2023-01-01T01:32:52.066Z,2.88
2023-01-01T01:34:53.529Z,3.20
2023-01-01T01:36:55.561Z,3.10
2023-01-01T01:38:57.193Z,2.65
2023-01-01T01:40:58.860Z,3.20
2023-01-01T01:43:00.386Z,3.55
2023-01-01T01:45:02.872Z,2.65
2023-01-01T01:47:04.437Z,2.90
2023-01-01T01:49:17.804Z,2.95
2023-01-01T01:51:24.665Z,2.92
2023-01-01T01:53:29.932Z,2.90
2023-01-01T01:55:35.159Z,3.03
2023-01-01T01:57:39.091Z,3.08
2023-01-01T01:59:47.507Z,3.20
2023-01-01T02:01:49.197Z,3.03
2023-01-01T02:04:08.653Z,3.67
2023-01-01T02:06:11.261Z,3.53
2023-01-01T02:08:15.758Z,3.95
2023-01-01T02:10:17.478Z,3.10
2023-01-01T02:12:18.975Z,3.97
2023-01-01T02:14:20.467Z,3.78
2023-01-01T02:16:32.552Z,3.58
2023-01-01T02:18:50.966Z,4.03
2023-01-01T02:21:12.600Z,4.43
2023-01-01T02:23:25.544Z,4.32
2023-01-01T02:25:51.353Z,3.35
2023-01-01T02:28:05.529Z,3.80
2023-01-01T02:30:09.105Z,4.85
2023-01-01T02:32:15.566Z,4.00
2023-01-01T02:34:21.369Z,3.75
2023-01-01T02:36:25.263Z,3.55
2023-01-01T02:38:34.987Z,3.70
2023-01-01T02:40:41.497Z,3.42
2023-01-01T02:42:43.211Z,3.53
2023-01-01T02:44:48.669Z,3.42
2023-01-01T02:46:50.154Z,3.55
2023-01-01T02:48:53.270Z,3.75
2023-01-01T02:51:01.123Z,3.10
2023-01-01T02:53:14.482Z,3.58
2023-01-01T02:55:44.594Z,2.95
2023-01-01T02:58:24.232Z,3.50
2023-01-01T03:00:31.276Z,4.18
2023-01-01T03:02:59.901Z,4.07
2023-01-01T03:05:17.315Z,4.03
2023-01-01T03:07:33.885Z,3.38
2023-01-01T03:09:59.016Z,3.30
2023-01-01T03:12:09.931Z,3.67
2023-01-01T03:14:20.897Z,3.97
2023-01-01T03:16:35.765Z,3.53
2023-01-01T03:19:10.421Z,4.22
2023-01-01T03:23:27.181Z,4.15
2023-01-01T03:25:34.111Z,4.00
2023-01-01T03:27:44.026Z,3.70
2023-01-01T03:29:49.011Z,4.32
2023-01-01T03:31:55.410Z,4.47
2023-01-01T03:34:03.907Z,4.13
2023-01-01T03:36:16.172Z,4.10
2023-01-01T03:38:34.165Z,3.58
2023-01-01T03:40:38.417Z,4.50
2023-01-01T03:42:43.933Z,5.03
2023-01-01T03:44:54.125Z,3.67
2023-01-01T03:46:56.195Z,3.97
2023-01-01T03:49:03.211Z,3.30
2023-01-01T03:51:17.623Z,3.55
2023-01-01T03:53:42.498Z,3.35
2023-01-01T03:55:55.213Z,4.13
2023-01-01T03:57:59.520Z,3.30
2023-01-01T04:00:09.618Z,3.92
2023-01-01T04:02:17.316Z,3.30
2023-01-01T04:04:19.839Z,3.20
2023-01-01T04:06:21.657Z,3.50
2023-01-01T04:08:23.436Z,3.40
2023-01-01T04:10:26.534Z,4.00
2023-01-01T04:12:30.411Z,3.40
2023-01-01T04:14:31.892Z,3.33
2023-01-01T04:16:33.465Z,3.25
2023-01-01T04:18:34.960Z,2.60
2023-01-01T04:20:36.423Z,3.10
2023-01-01T04:22:38.077Z,3.30
2023-01-01T04:24:39.537Z,2.50
2023-01-01T04:26:41.524Z,3.45
2023-01-01T04:28:43.111Z,3.55
2023-01-01T04:32:45.266Z,2.42
2023-01-01T04:34:46.704Z,3.10
2023-01-01T04:36:48.191Z,2.70
2023-01-01T04:38:49.703Z,2.90
2023-01-01T04:41:01.286Z,2.70
2023-01-01T04:43:02.750Z,2.88
2023-01-01T04:45:04.649Z,2.58
2023-01-01T04:47:06.367Z,2.55
2023-01-01T04:49:07.849Z,2.47
2023-01-01T04:51:11.193Z,2.40
2023-01-01T04:53:12.659Z,2.60
2023-01-01T04:55:14.300Z,2.30
2023-01-01T04:57:15.757Z,2.38
2023-01-01T04:59:17.251Z,2.40
2023-01-01T05:01:27.472Z,2.88
2023-01-01T05:03:29.452Z,2.08
2023-01-01T05:05:30.936Z,2.45
2023-01-01T05:07:33.370Z,2.50
2023-01-01T05:09:34.814Z,2.25
2023-01-01T05:11:36.452Z,1.75
2023-01-01T05:13:40.055Z,2.40
2023-01-01T05:15:41.500Z,2.22
2023-01-01T05:17:42.989Z,2.60
2023-01-01T05:19:44.459Z,2.25
2023-01-01T05:21:46.569Z,2.35
2023-01-01T05:23:48.126Z,2.33
2023-01-01T05:25:49.567Z,2.85
2023-01-01T05:27:51.195Z,2.58
2023-01-01T05:29:52.641Z,2.00
2023-01-01T05:31:54.118Z,2.30
2023-01-01T05:33:55.969Z,2.13
2023-01-01T05:35:57.468Z,2.28
2023-01-01T05:38:00.174Z,2.22
2023-01-01T05:40:01.730Z,2.08
2023-01-01T05:42:03.269Z,2.30
2023-01-01T05:44:06.625Z,2.40
2023-01-01T05:46:11.577Z,2.03
2023-01-01T05:48:13.083Z,1.75
2023-01-01T05:50:14.655Z,1.63
2023-01-01T05:52:17.544Z,2.50
2023-01-01T05:54:20.687Z,1.88
2023-01-01T05:56:22.847Z,2.35
2023-01-01T05:58:24.514Z,1.70
2023-01-01T06:00:25.987Z,1.40
2023-01-01T06:02:30.763Z,1.70
2023-01-01T06:04:32.343Z,2.13
2023-01-01T06:06:33.883Z,2.03
2023-01-01T06:08:35.399Z,1.85
2023-01-01T06:10:36.970Z,1.30
2023-01-01T06:12:38.433Z,1.70
2023-01-01T06:14:39.876Z,1.60
2023-01-01T06:16:42.535Z,1.80
2023-01-01T06:18:44.137Z,1.40
2023-01-01T06:20:45.617Z,1.48
2023-01-01T06:22:47.322Z,1.70
2023-01-01T06:24:48.830Z,1.52
2023-01-01T06:26:50.361Z,1.58
2023-01-01T06:28:52.647Z,1.45
2023-01-01T06:30:54.404Z,1.30
2023-01-01T06:32:55.867Z,1.50
2023-01-01T06:34:57.317Z,1.48
2023-01-01T06:37:03.083Z,1.30
2023-01-01T06:39:08.726Z,1.38
2023-01-01T06:41:12.828Z,1.20
2023-01-01T06:43:14.285Z,1.17
2023-01-01T06:45:15.828Z,1.42
2023-01-01T06:47:17.267Z,1.10
2023-01-01T06:49:18.804Z,1.30
2023-01-01T06:51:22.672Z,1.42
2023-01-01T06:53:25.776Z,1.40
2023-01-01T06:55:27.226Z,1.20
2023-01-01T06:57:28.675Z,1.20
2023-01-01T06:59:30.137Z,1.42
2023-01-01T07:01:33.587Z,0.88
2023-01-01T07:03:35.305Z,1.40
2023-01-01T07:05:36.854Z,1.15
2023-01-01T07:07:38.445Z,1.30
2023-01-01T07:09:39.985Z,1.15
2023-01-01T07:11:41.454Z,1.35
2023-01-01T07:13:42.993Z,1.20
2023-01-01T07:15:44.611Z,1.42
2023-01-01T07:17:46.100Z,1.30
2023-01-01T07:19:47.665Z,0.95
2023-01-01T07:21:54.346Z,1.10
2023-01-01T07:23:56.814Z,1.05
2023-01-01T07:25:58.902Z,1.00
2023-01-01T07:28:00.367Z,0.98
2023-01-01T07:30:01.876Z,1.05
2023-01-01T07:32:04.363Z,1.70
2023-01-01T07:34:07.331Z,1.70
2023-01-01T07:36:09.089Z,1.35
2023-01-01T07:38:10.640Z,1.10
2023-01-01T07:40:12.204Z,1.50
2023-01-01T07:42:13.665Z,0.80
2023-01-01T07:44:15.153Z,1.00
2023-01-01T07:46:18.879Z,0.95
2023-01-01T07:48:20.479Z,1.25
2023-01-01T07:50:23.472Z,1.00
2023-01-01T07:52:24.933Z,0.82
2023-01-01T07:54:26.403Z,1.00
2023-01-01T07:56:27.977Z,0.80
2023-01-01T07:58:29.452Z,0.90
2023-01-01T08:00:30.949Z,0.95
2023-01-01T08:02:32.819Z,0.63
2023-01-01T08:04:35.282Z,1.10
2023-01-01T08:06:37.795Z,1.40
2023-01-01T08:08:40.132Z,1.02
2023-01-01T08:10:41.596Z,1.13
2023-01-01T08:12:43.515Z,1.45
2023-01-01T08:14:44.952Z,1.17
2023-01-01T08:16:46.443Z,0.60
2023-01-01T08:18:47.954Z,0.70
2023-01-01T08:20:49.409Z,1.00
2023-01-01T08:22:50.910Z,1.73
2023-01-01T08:24:52.387Z,1.35
2023-01-01T08:26:53.897Z,1.30
2023-01-01T08:28:57.396Z,1.00
2023-01-01T08:31:00.257Z,1.80
2023-01-01T08:33:01.794Z,1.33
2023-01-01T08:35:04.100Z,1.45
2023-01-01T08:37:05.821Z,1.17
2023-01-01T08:39:08.189Z,1.20
2023-01-01T08:41:10.092Z,1.30
2023-01-01T08:43:11.544Z,1.20
2023-01-01T08:45:12.999Z,1.23
2023-01-01T08:47:23.143Z,1.77
2023-01-01T08:49:24.607Z,0.80
2023-01-01T08:51:26.067Z,1.20
2023-01-01T08:53:29.105Z,1.13
2023-01-01T08:55:31.392Z,0.90
2023-01-01T08:57:32.884Z,0.80
2023-01-01T08:59:34.417Z,1.25
2023-01-01T09:01:35.998Z,0.98
2023-01-01T09:03:37.664Z,1.00
2023-01-01T09:05:39.188Z,1.20
2023-01-01T09:07:40.626Z,1.00
2023-01-01T09:09:42.132Z,1.20
2023-01-01T09:11:59.125Z,1.00
2023-01-01T09:14:00.583Z,0.98
2023-01-01T09:16:02.108Z,0.90
2023-01-01T09:18:03.849Z,0.88
2023-01-01T09:20:05.898Z,0.80
2023-01-01T09:22:11.940Z,0.60
2023-01-01T09:24:13.389Z,0.85
2023-01-01T09:26:14.862Z,0.63
2023-01-01T09:28:20.440Z,0.50
2023-01-01T09:32:26.738Z,0.47
2023-01-01T09:34:28.234Z,0.70
2023-01-01T09:36:31.983Z,0.45
2023-01-01T09:38:33.486Z,0.60
2023-01-01T09:40:51.164Z,0.50
2023-01-01T09:43:19.559Z,0.65
2023-01-01T09:45:28.661Z,0.40
2023-01-01T09:47:41.143Z,0.52
2023-01-01T09:49:46.542Z,0.57
2023-01-01T09:51:57.926Z,0.40
2023-01-01T09:54:05.268Z,0.57
2023-01-01T09:56:17.529Z,0.50
2023-01-01T09:58:24.187Z,0.60
2023-01-01T10:00:29.913Z,0.57
2023-01-01T10:02:51.461Z,0.43
2023-01-01T10:05:05.262Z,0.68
2023-01-01T10:07:21.914Z,0.47
2023-01-01T10:09:56.555Z,0.25
2023-01-01T10:12:11.702Z,0.63
2023-01-01T10:14:19.913Z,0.55
2023-01-01T10:16:39.028Z,1.45
2023-01-01T10:18:42.502Z,0.40
2023-01-01T10:21:09.380Z,0.50
2023-01-01T10:23:25.712Z,0.40
2023-01-01T10:25:33.898Z,0.47
2023-01-01T10:27:44.784Z,0.40
2023-01-01T10:29:50.247Z,0.73
2023-01-01T10:31:55.105Z,0.50
2023-01-01T10:33:57.180Z,0.47
2023-01-01T10:35:58.988Z,0.60
2023-01-01T10:38:01.738Z,0.60
2023-01-01T10:40:15.555Z,0.50
2023-01-01T10:42:17.275Z,0.43
2023-01-01T10:44:30.251Z,0.30
2023-01-01T10:46:32.617Z,0.70
2023-01-01T10:48:35.973Z,0.57
2023-01-01T10:50:52.452Z,0.70
2023-01-01T10:52:57.061Z,0.43
2023-01-01T10:54:59.961Z,0.60
2023-01-01T10:57:27.714Z,0.70
2023-01-01T10:59:38.047Z,0.43
2023-01-01T11:01:39.604Z,0.50
2023-01-01T11:04:03.993Z,0.50
2023-01-01T11:06:25.127Z,0.70
2023-01-01T11:08:29.434Z,0.55
2023-01-01T11:10:31.571Z,0.55
2023-01-01T11:15:00.069Z,0.90
2023-01-01T11:17:01.849Z,0.70
2023-01-01T11:19:08.444Z,0.50
2023-01-01T11:21:10.072Z,0.88
2023-01-01T11:23:27.105Z,1.08
2023-01-01T11:25:30.260Z,0.90
2023-01-01T11:27:31.782Z,1.02
2023-01-01T11:29:33.283Z,0.90
2023-01-01T11:31:38.823Z,0.80
2023-01-01T11:33:45.061Z,0.80
2023-01-01T11:35:50.912Z,0.77
2023-01-01T11:37:54.997Z,0.95
2023-01-01T11:39:58.500Z,0.82
2023-01-01T11:42:00.204Z,0.60
2023-01-01T11:44:01.739Z,1.00
2023-01-01T11:46:07.660Z,0.90
2023-01-01T11:48:17.664Z,1.00
2023-01-01T11:50:42.343Z,1.00
2023-01-01T11:52:46.891Z,0.80
2023-01-01T11:54:48.725Z,1.23
2023-01-01T11:56:54.661Z,0.73
2023-01-01T11:59:04.915Z,1.45
2023-01-01T12:01:06.352Z,0.95
2023-01-01T12:03:34.303Z,0.50
2023-01-01T12:06:03.637Z,0.93
2023-01-01T12:08:10.559Z,0.70
2023-01-01T12:10:23.314Z,0.75
2023-01-01T12:12:35.648Z,1.23
2023-01-01T12:14:55.496Z,0.52
2023-01-01T12:17:12.928Z,0.73
2023-01-01T12:19:20.779Z,1.00
2023-01-01T12:21:34.740Z,0.98
2023-01-01T12:23:36.719Z,0.82
2023-01-01T12:25:43.909Z,1.23
2023-01-01T12:27:58.064Z,1.00
2023-01-01T12:30:13.622Z,1.20
2023-01-01T12:32:38.413Z,0.80
2023-01-01T12:35:03.532Z,1.35
2023-01-01T12:37:35.936Z,1.20
2023-01-01T12:39:56.372Z,1.30
2023-01-01T12:42:14.320Z,1.38
2023-01-01T12:44:58.921Z,1.10
2023-01-01T12:47:06.644Z,1.08
2023-01-01T12:49:15.895Z,1.30
2023-01-01T12:51:32.211Z,1.20
2023-01-01T12:53:45.539Z,1.40
2023-01-01T12:55:56.144Z,0.90
2023-01-01T12:58:08.439Z,0.95
2023-01-01T13:00:16.429Z,1.10
2023-01-01T13:02:25.344Z,1.25
2023-01-01T13:04:27.240Z,1.15
2023-01-01T13:06:41.188Z,1.23
2023-01-01T13:08:47.598Z,1.10
2023-01-01T13:10:59.253Z,1.00
2023-01-01T13:13:01.786Z,1.10
2023-01-01T13:15:44.115Z,1.67
2023-01-01T13:17:53.148Z,1.20
2023-01-01T13:20:21.142Z,1.52
2023-01-01T13:22:28.444Z,1.65
2023-01-01T13:24:29.962Z,1.02
2023-01-01T13:26:32.083Z,2.38
2023-01-01T13:28:33.545Z,1.40
2023-01-01T13:30:38.443Z,1.30
2023-01-01T13:33:23.203Z,1.45
2023-01-01T13:35:26.909Z,1.35
2023-01-01T13:37:30.970Z,1.70
2023-01-01T13:40:24.671Z,1.30
2023-01-01T13:42:59.187Z,1.35
2023-01-01T13:45:02.341Z,1.30
2023-01-01T13:47:18.741Z,1.63
2023-01-01T13:49:55.555Z,1.73
2023-01-01T13:52:06.015Z,1.50
2023-01-01T13:54:45.698Z,0.95
2023-01-01T13:56:58.488Z,1.63
2023-01-01T13:59:26.105Z,1.48
2023-01-01T14:01:52.233Z,1.67
2023-01-01T14:03:55.981Z,1.40
2023-01-01T14:06:02.376Z,1.50
2023-01-01T14:08:08.495Z,1.52
2023-01-01T14:10:34.046Z,1.95
2023-01-01T14:12:38.338Z,1.38
2023-01-01T14:14:39.820Z,1.38
2023-01-01T14:16:41.877Z,1.83
2023-01-01T14:18:47.469Z,1.38
2023-01-01T14:20:53.530Z,1.20
2023-01-01T14:22:55.016Z,1.73
2023-01-01T14:24:56.772Z,1.55
2023-01-01T14:26:59.220Z,1.50
2023-01-01T14:29:06.071Z,1.30
2023-01-01T14:31:14.637Z,1.58
2023-01-01T14:33:24.949Z,1.30
2023-01-01T14:35:27.791Z,1.30
2023-01-01T14:37:29.317Z,1.30
2023-01-01T14:39:33.375Z,1.23
2023-01-01T14:41:37.812Z,1.60
2023-01-01T14:43:42.438Z,1.50
2023-01-01T14:45:44.250Z,1.90
2023-01-01T14:47:51.519Z,1.35
2023-01-01T14:49:54.838Z,1.95
2023-01-01T14:52:26.489Z,1.95
2023-01-01T14:54:35.829Z,1.45
2023-01-01T14:56:38.020Z,1.90
2023-01-01T14:58:40.594Z,1.98
2023-01-01T15:00:42.147Z,1.40
2023-01-01T15:02:43.737Z,2.15
2023-01-01T15:04:45.369Z,1.50
2023-01-01T15:06:56.574Z,2.10
2023-01-01T15:08:58.309Z,1.98
2023-01-01T15:11:03.292Z,2.13
2023-01-01T15:13:07.334Z,1.60
2023-01-01T15:15:40.023Z,1.40
2023-01-01T15:17:46.631Z,2.25
2023-01-01T15:20:06.797Z,1.98
2023-01-01T15:22:31.242Z,1.77
2023-01-01T15:24:33.380Z,1.90
2023-01-01T15:26:41.292Z,1.58
2023-01-01T15:28:42.823Z,2.15
2023-01-01T15:30:44.299Z,1.70
2023-01-01T15:32:45.848Z,1.88
2023-01-01T15:34:53.006Z,1.90
2023-01-01T15:36:56.409Z,1.83
2023-01-01T15:38:58.483Z,1.90
2023-01-01T15:41:21.423Z,2.08
2023-01-01T15:43:25.467Z,3.63
2023-01-01T15:45:41.054Z,2.30
2023-01-01T15:47:43.339Z,1.80
2023-01-01T15:49:44.789Z,2.08
2023-01-01T15:51:46.262Z,3.00
2023-01-01T15:54:00.651Z,2.22
2023-01-01T15:56:11.365Z,2.65
2023-01-01T15:58:18.457Z,2.03
2023-01-01T16:00:22.927Z,1.90
2023-01-01T16:02:31.664Z,2.13
2023-01-01T16:04:33.684Z,1.83
2023-01-01T16:06:44.014Z,1.73
2023-01-01T16:08:45.573Z,2.78
2023-01-01T16:10:51.223Z,1.95
2023-01-01T16:12:52.693Z,2.17
2023-01-01T16:14:54.198Z,2.75
2023-01-01T16:17:00.834Z,3.42
2023-01-01T16:19:02.676Z,4.07
2023-01-01T16:21:05.814Z,3.78
2023-01-01T16:23:10.129Z,3.65
2023-01-01T16:25:20.760Z,4.07
2023-01-01T16:27:22.250Z,2.95
2023-01-01T16:29:23.717Z,2.75
2023-01-01T16:31:28.589Z,2.63
2023-01-01T16:33:30.111Z,2.00
2023-01-01T16:35:31.564Z,2.50
2023-01-01T16:37:33.398Z,2.38
2023-01-01T16:39:34.901Z,2.33
2023-01-01T16:41:39.336Z,2.40
2023-01-01T16:43:42.330Z,3.08
2023-01-01T16:45:47.005Z,2.67
2023-01-01T16:47:48.520Z,2.95
2023-01-01T16:49:49.995Z,2.92
2023-01-01T16:51:51.455Z,3.55
2023-01-01T16:53:52.938Z,3.45
2023-01-01T16:55:54.693Z,3.92
2023-01-01T16:58:21.035Z,3.42
2023-01-01T17:00:17.743Z,3.20
2023-01-01T17:02:19.344Z,3.15
2023-01-01T17:04:20.989Z,3.47
2023-01-01T17:06:22.449Z,3.05
2023-01-01T17:08:24.058Z,3.42
2023-01-01T17:10:25.501Z,3.13
2023-01-01T17:12:26.949Z,3.10
2023-01-01T17:14:28.461Z,3.45
2023-01-01T17:16:36.236Z,2.78
2023-01-01T17:19:13.455Z,2.58
2023-01-01T17:21:10.662Z,2.28
2023-01-01T17:23:12.097Z,2.75
2023-01-01T17:25:13.610Z,2.95
2023-01-01T17:27:15.098Z,2.78
2023-01-01T17:29:16.550Z,4.10
2023-01-01T17:31:20.331Z,3.20
2023-01-01T17:33:21.802Z,3.38
2023-01-01T17:35:23.435Z,4.05
2023-01-01T17:37:25.645Z,2.95
2023-01-01T17:39:27.144Z,3.35
2023-01-01T17:41:28.639Z,3.38
2023-01-01T17:43:35.080Z,3.28
2023-01-01T17:45:36.910Z,3.40
2023-01-01T17:47:38.405Z,3.20
2023-01-01T17:49:39.964Z,3.63
2023-01-01T17:51:41.467Z,4.07
2023-01-01T17:53:43.027Z,4.28
2023-01-01T17:55:44.505Z,4.15
2023-01-01T17:57:45.981Z,5.80
2023-01-01T17:59:47.467Z,3.28
2023-01-01T18:01:49.012Z,3.78
2023-01-01T18:03:56.403Z,3.63
2023-01-01T18:05:57.918Z,3.70
2023-01-01T18:07:59.358Z,3.83
2023-01-01T18:10:00.827Z,34.88
2023-01-01T18:12:02.275Z,63.25
2023-01-01T18:14:03.951Z,23.42
2023-01-01T18:16:08.343Z,5.45
2023-01-01T18:18:09.849Z,7.18
2023-01-01T18:20:11.670Z,6.75
2023-01-01T18:22:13.636Z,6.43
2023-01-01T18:24:16.012Z,3.50
2023-01-01T18:26:18.116Z,4.00
2023-01-01T18:28:19.557Z,3.80
2023-01-01T18:30:21.127Z,4.40
2023-01-01T18:32:22.703Z,4.00
2023-01-01T18:34:24.165Z,4.57
2023-01-01T18:36:30.245Z,3.83
2023-01-01T18:38:32.017Z,3.75
2023-01-01T18:40:35.386Z,3.90
2023-01-01T18:42:46.132Z,4.40
2023-01-01T18:44:47.740Z,4.53
2023-01-01T18:47:04.166Z,5.75
2023-01-01T18:49:09.556Z,6.85
2023-01-01T18:51:29.246Z,4.43
2023-01-01T18:53:32.365Z,5.50
2023-01-01T18:55:33.867Z,4.53
2023-01-01T18:57:36.286Z,4.13
2023-01-01T18:59:37.936Z,4.50
2023-01-01T19:01:44.339Z,4.45
2023-01-01T19:03:51.259Z,5.13
2023-01-01T19:05:52.710Z,4.95
2023-01-01T19:08:06.222Z,4.22
2023-01-01T19:10:12.988Z,4.20
2023-01-01T19:12:18.484Z,4.47
2023-01-01T19:14:25.347Z,4.18
2023-01-01T19:16:30.461Z,5.03
2023-01-01T19:18:33.988Z,5.47
2023-01-01T19:20:35.517Z,3.90
2023-01-01T19:22:37.088Z,4.10
2023-01-01T19:24:43.840Z,4.05
2023-01-01T19:26:46.249Z,4.18
2023-01-01T19:29:00.644Z,4.25
2023-01-01T19:31:03.877Z,4.35
2023-01-01T19:33:05.436Z,4.57
2023-01-01T19:35:10.689Z,4.47
2023-01-01T19:37:14.932Z,3.85
2023-01-01T19:39:16.984Z,3.65
2023-01-01T19:41:18.468Z,3.72
2023-01-01T19:43:20.234Z,3.58
2023-01-01T19:45:22.165Z,4.35
2023-01-01T19:47:23.628Z,3.58
2023-01-01T19:49:25.096Z,3.90
2023-01-01T19:51:26.991Z,3.00
2023-01-01T19:53:28.475Z,4.07
2023-01-01T19:55:29.936Z,3.78
2023-01-01T19:57:31.632Z,3.63
2023-01-01T19:59:33.649Z,3.65
2023-01-01T20:01:35.744Z,3.88
2023-01-01T20:03:55.327Z,4.13
2023-01-01T20:05:58.345Z,3.42
2023-01-01T20:07:59.822Z,3.55
2023-01-01T20:10:01.344Z,3.15
2023-01-01T20:12:02.908Z,3.72
2023-01-01T20:14:04.518Z,3.13
2023-01-01T20:16:06.549Z,2.40
2023-01-01T20:18:08.025Z,2.40
2023-01-01T20:20:10.857Z,2.88
2023-01-01T20:22:13.889Z,2.63
2023-01-01T20:24:18.130Z,2.70
2023-01-01T20:26:20.741Z,2.42
2023-01-01T20:28:40.929Z,2.22
2023-01-01T20:30:42.380Z,2.70
2023-01-01T20:32:44.081Z,2.30
2023-01-01T20:34:45.771Z,3.25
2023-01-01T20:37:06.057Z,2.00
2023-01-01T20:39:07.521Z,2.67
2023-01-01T20:41:24.095Z,2.28
2023-01-01T20:43:25.547Z,2.25
2023-01-01T20:45:27.097Z,2.00
2023-01-01T20:47:28.731Z,2.00
2023-01-01T20:49:30.188Z,2.10
2023-01-01T20:51:31.681Z,2.08
2023-01-01T20:53:33.358Z,2.10
2023-01-01T20:55:34.809Z,3.25
2023-01-01T20:57:36.323Z,2.13
2023-01-01T20:59:38.697Z,2.42
2023-01-01T21:01:40.579Z,2.25
2023-01-01T21:03:42.129Z,2.60
2023-01-01T21:05:43.586Z,2.13
2023-01-01T21:07:45.095Z,2.45
2023-01-01T21:09:46.877Z,1.92
2023-01-01T21:11:48.342Z,2.53
2023-01-01T21:13:50.535Z,2.30
2023-01-01T21:15:54.489Z,2.03
2023-01-01T21:17:56.158Z,2.08
2023-01-01T21:19:58.480Z,1.83
2023-01-01T21:21:59.941Z,1.92
2023-01-01T21:24:06.906Z,1.75
2023-01-01T21:26:15.824Z,1.80
2023-01-01T21:28:17.880Z,2.13
2023-01-01T21:30:20.138Z,1.83
2023-01-01T21:32:32.869Z,2.40
2023-01-01T21:34:34.292Z,1.92
2023-01-01T21:36:35.782Z,1.92
2023-01-01T21:38:37.263Z,1.80
2023-01-01T21:40:41.515Z,2.58
2023-01-01T21:42:42.969Z,2.25
2023-01-01T21:44:44.464Z,2.53
2023-01-01T21:46:54.245Z,1.92
2023-01-01T21:49:02.781Z,2.20
2023-01-01T21:51:18.458Z,2.63
2023-01-01T21:53:22.405Z,1.83
2023-01-01T21:55:46.546Z,2.30
2023-01-01T21:57:48.020Z,2.45
2023-01-01T21:59:50.743Z,2.10
2023-01-01T22:01:54.688Z,2.20
2023-01-01T22:04:11.463Z,2.20
2023-01-01T22:06:15.212Z,2.55
2023-01-01T22:08:23.736Z,2.47
2023-01-01T22:10:37.253Z,2.50
2023-01-01T22:12:39.079Z,3.20
2023-01-01T22:14:45.845Z,2.65
2023-01-01T22:16:53.353Z,2.30
2023-01-01T22:18:55.569Z,2.22
2023-01-01T22:20:57.949Z,2.22
2023-01-01T22:23:04.960Z,2.63
2023-01-01T22:25:24.426Z,2.20
2023-01-01T22:27:29.020Z,1.98
2023-01-01T22:29:32.173Z,2.05
2023-01-01T22:31:36.200Z,2.50
2023-01-01T22:33:41.613Z,2.30
2023-01-01T22:35:43.296Z,2.30
2023-01-01T22:37:48.399Z,2.67
2023-01-01T22:39:53.903Z,3.05
2023-01-01T22:41:55.489Z,2.83
2023-01-01T22:44:02.614Z,2.47
2023-01-01T22:46:28.068Z,2.30
2023-01-01T22:48:35.028Z,2.30
2023-01-01T22:50:36.841Z,3.25
2023-01-01T22:52:38.274Z,1.92
2023-01-01T22:54:39.775Z,2.22
2023-01-01T22:56:41.296Z,2.05
2023-01-01T22:58:42.788Z,1.95
2023-01-01T23:00:44.260Z,2.20
2023-01-01T23:02:46.162Z,2.28
2023-01-01T23:04:47.648Z,2.40
2023-01-01T23:06:49.166Z,2.50
2023-01-01T23:08:51.903Z,1.98
2023-01-01T23:10:53.824Z,1.70
2023-01-01T23:12:55.262Z,2.28
2023-01-01T23:15:15.199Z,2.05
2023-01-01T23:17:16.651Z,1.98
2023-01-01T23:19:18.704Z,2.20
2023-01-01T23:21:26.845Z,2.42
2023-01-01T23:25:31.463Z,2.05
2023-01-01T23:27:33.710Z,2.35
2023-01-01T23:29:35.664Z,2.80
2023-01-01T23:31:38.791Z,2.40
2023-01-01T23:33:41.004Z,2.45
2023-01-01T23:35:42.681Z,2.42
2023-01-01T23:37:44.434Z,2.10
2023-01-01T23:39:45.893Z,2.55
2023-01-01T23:41:47.469Z,2.45
2023-01-01T23:43:49.540Z,2.45
2023-01-01T23:45:51.532Z,2.47
2023-01-01T23:47:53.385Z,2.45
2023-01-01T23:49:54.845Z,2.35
2023-01-01T23:51:56.453Z,2.38
2023-01-01T23:53:57.937Z,2.65
2023-01-01T23:55:59.397Z,2.60
2023-01-01T23:58:00.842Z,2.65
